sensor_id;sensor_type;location;lat;lon;timestamp;P1;durP1;ratioP1;P2;durP2;ratioP2
14734;SDS011;7458;49.002;8.472;2023-09-19T00:00:37;1440.13;;;999.90;;
14734;SDS011;7458;49.002;8.472;2023-09-19T00:17:52;1390.30;;;999.90;;
14734;SDS011;7458;49.002;8.472;2023-09-19T00:20:18;1418.28;;;999.90;;
14734;SDS011;7458;49.002;8.472;2023-09-19T00:22:44;1375.88;;;999.90;;
14734;SDS011;7458;49.002;8.472;2023-09-19T00:25:10;1422.05;;;999.90;;
14734;SDS011;7458;49.002;8.472;2023-09-19T00:27:39;1375.43;;;999.90;;
14734;SDS011;7458;49.002;8.472;2023-09-19T00:30:08;1420.85;;;999.90;;
14734;SDS011;7458;49.002;8.472;2023-09-19T00:32:40;1421.43;;;999.90;;
14734;SDS011;7458;49.002;8.472;2023-09-19T00:35:08;1430.05;;;999.90;;
14734;SDS011;7458;49.002;8.472;2023-09-19T00:37:39;1430.40;;;999.90;;
14734;SDS011;7458;49.002;8.472;2023-09-19T00:40:05;1383.25;;;999.90;;
14734;SDS011;7458;49.002;8.472;2023-09-19T00:42:43;1390.78;;;999.90;;
14734;SDS011;7458;49.002;8.472;2023-09-19T00:45:14;1386.53;;;999.90;;
14734;SDS011;7458;49.002;8.472;2023-09-19T00:47:43;1437.53;;;999.90;;
14734;SDS011;7458;49.002;8.472;2023-09-19T00:50:17;1388.65;;;999.90;;
14734;SDS011;7458;49.002;8.472;2023-09-19T00:52:46;1389.72;;;999.90;;
14734;SDS011;7458;49.002;8.472;2023-09-19T00:55:15;1382.45;;;999.90;;
14734;SDS011;7458;49.002;8.472;2023-09-19T00:57:44;1427.63;;;999.90;;
14734;SDS011;7458;49.002;8.472;2023-09-19T01:00:12;1373.07;;;999.90;;
14734;SDS011;7458;49.002;8.472;2023-09-19T01:02:43;1410.50;;;999.90;;
14734;SDS011;7458;49.002;8.472;2023-09-19T01:05:10;1403.25;;;999.90;;
14734;SDS011;7458;49.002;8.472;2023-09-19T01:07:40;1337.45;;;999.90;;
14734;SDS011;7458;49.002;8.472;2023-09-19T01:10:06;1420.35;;;999.90;;
14734;SDS011;7458;49.002;8.472;2023-09-19T01:12:52;1419.20;;;999.90;;
14734;SDS011;7458;49.002;8.472;2023-09-19T01:15:37;1441.95;;;999.90;;
14734;SDS011;7458;49.002;8.472;2023-09-19T01:21:32;1395.55;;;999.90;;
14734;SDS011;7458;49.002;8.472;2023-09-19T01:30:57;1382.20;;;999.90;;
14734;SDS011;7458;49.002;8.472;2023-09-19T01:33:29;1369.38;;;999.90;;
14734;SDS011;7458;49.002;8.472;2023-09-19T01:36:29;1357.07;;;999.90;;
14734;SDS011;7458;49.002;8.472;2023-09-19T01:39:07;1361.38;;;999.90;;
14734;SDS011;7458;49.002;8.472;2023-09-19T01:52:59;1387.78;;;999.90;;
14734;SDS011;7458;49.002;8.472;2023-09-19T01:55:35;1428.80;;;999.90;;
14734;SDS011;7458;49.002;8.472;2023-09-19T01:58:16;1427.57;;;999.90;;
14734;SDS011;7458;49.002;8.472;2023-09-19T02:01:02;1425.25;;;999.90;;
14734;SDS011;7458;49.002;8.472;2023-09-19T02:03:31;1424.05;;;999.90;;
14734;SDS011;7458;49.002;8.472;2023-09-19T02:06:00;1421.10;;;999.90;;
14734;SDS011;7458;49.002;8.472;2023-09-19T02:08:28;1417.10;;;999.90;;
14734;SDS011;7458;49.002;8.472;2023-09-19T02:10:56;1375.43;;;999.90;;
14734;SDS011;7458;49.002;8.472;2023-09-19T02:13:22;1373.97;;;999.90;;
14734;SDS011;7458;49.002;8.472;2023-09-19T02:15:53;1419.15;;;999.90;;
14734;SDS011;7458;49.002;8.472;2023-09-19T02:18:19;1426.38;;;999.90;;
14734;SDS011;7458;49.002;8.472;2023-09-19T02:20:45;1373.90;;;999.90;;
14734;SDS011;7458;49.002;8.472;2023-09-19T02:23:11;1413.47;;;999.90;;
14734;SDS011;7458;49.002;8.472;2023-09-19T02:25:38;1362.68;;;999.90;;
14734;SDS011;7458;49.002;8.472;2023-09-19T02:28:05;1397.00;;;999.90;;
14734;SDS011;7458;49.002;8.472;2023-09-19T02:30:32;1381.28;;;999.90;;
14734;SDS011;7458;49.002;8.472;2023-09-19T02:32:58;1344.53;;;999.90;;
14734;SDS011;7458;49.002;8.472;2023-09-19T02:35:27;1409.20;;;999.90;;
14734;SDS011;7458;49.002;8.472;2023-09-19T02:37:53;1386.13;;;999.90;;
14734;SDS011;7458;49.002;8.472;2023-09-19T02:40:19;1407.07;;;999.90;;
14734;SDS011;7458;49.002;8.472;2023-09-19T02:42:46;1425.10;;;999.90;;
14734;SDS011;7458;49.002;8.472;2023-09-19T02:45:18;1411.60;;;999.90;;
14734;SDS011;7458;49.002;8.472;2023-09-19T02:47:44;1454.88;;;999.90;;
14734;SDS011;7458;49.002;8.472;2023-09-19T02:50:11;1413.90;;;999.90;;
14734;SDS011;7458;49.002;8.472;2023-09-19T02:52:42;1349.43;;;999.90;;
14734;SDS011;7458;49.002;8.472;2023-09-19T02:55:09;1462.53;;;999.90;;
14734;SDS011;7458;49.002;8.472;2023-09-19T02:57:39;1462.75;;;999.90;;
14734;SDS011;7458;49.002;8.472;2023-09-19T03:00:08;1406.38;;;999.90;;
14734;SDS011;7458;49.002;8.472;2023-09-19T03:02:37;1414.18;;;999.90;;
14734;SDS011;7458;49.002;8.472;2023-09-19T03:05:06;1409.95;;;999.90;;
14734;SDS011;7458;49.002;8.472;2023-09-19T03:07:32;1460.32;;;999.90;;
14734;SDS011;7458;49.002;8.472;2023-09-19T03:09:59;1419.35;;;999.90;;
14734;SDS011;7458;49.002;8.472;2023-09-19T03:12:26;1415.95;;;999.90;;
14734;SDS011;7458;49.002;8.472;2023-09-19T03:14:52;1414.53;;;999.90;;
14734;SDS011;7458;49.002;8.472;2023-09-19T03:17:18;1398.97;;;999.90;;
14734;SDS011;7458;49.002;8.472;2023-09-19T03:19:45;1437.25;;;999.90;;
14734;SDS011;7458;49.002;8.472;2023-09-19T03:22:12;1450.93;;;999.90;;
14734;SDS011;7458;49.002;8.472;2023-09-19T03:24:39;1400.43;;;999.90;;
14734;SDS011;7458;49.002;8.472;2023-09-19T03:27:05;1404.55;;;999.90;;
14734;SDS011;7458;49.002;8.472;2023-09-19T03:29:30;1395.68;;;999.90;;
14734;SDS011;7458;49.002;8.472;2023-09-19T03:31:56;1388.28;;;999.90;;
14734;SDS011;7458;49.002;8.472;2023-09-19T03:34:22;1443.72;;;999.90;;
14734;SDS011;7458;49.002;8.472;2023-09-19T03:36:48;1406.45;;;999.90;;
14734;SDS011;7458;49.002;8.472;2023-09-19T03:39:14;1442.28;;;999.90;;
14734;SDS011;7458;49.002;8.472;2023-09-19T03:41:42;1464.40;;;999.90;;
14734;SDS011;7458;49.002;8.472;2023-09-19T03:44:08;1458.10;;;999.90;;
14734;SDS011;7458;49.002;8.472;2023-09-19T03:46:33;1436.32;;;999.90;;
14734;SDS011;7458;49.002;8.472;2023-09-19T03:49:01;1471.72;;;999.90;;
14734;SDS011;7458;49.002;8.472;2023-09-19T03:51:27;1424.95;;;999.90;;
14734;SDS011;7458;49.002;8.472;2023-09-19T03:53:53;1428.10;;;999.90;;
14734;SDS011;7458;49.002;8.472;2023-09-19T03:56:19;1418.10;;;999.90;;
14734;SDS011;7458;49.002;8.472;2023-09-19T03:58:44;1431.18;;;999.90;;
14734;SDS011;7458;49.002;8.472;2023-09-19T04:01:10;1415.45;;;999.90;;
14734;SDS011;7458;49.002;8.472;2023-09-19T04:03:38;1468.00;;;999.90;;
14734;SDS011;7458;49.002;8.472;2023-09-19T04:06:13;1448.28;;;999.90;;
14734;SDS011;7458;49.002;8.472;2023-09-19T04:08:41;1453.65;;;999.90;;
14734;SDS011;7458;49.002;8.472;2023-09-19T04:11:07;1418.22;;;999.90;;
14734;SDS011;7458;49.002;8.472;2023-09-19T04:13:34;1443.78;;;999.90;;
14734;SDS011;7458;49.002;8.472;2023-09-19T04:16:00;1387.32;;;999.90;;
14734;SDS011;7458;49.002;8.472;2023-09-19T04:18:26;1437.25;;;999.90;;
14734;SDS011;7458;49.002;8.472;2023-09-19T04:20:52;1453.63;;;999.90;;
14734;SDS011;7458;49.002;8.472;2023-09-19T04:23:18;1413.85;;;999.90;;
14734;SDS011;7458;49.002;8.472;2023-09-19T04:25:47;1442.68;;;999.90;;
14734;SDS011;7458;49.002;8.472;2023-09-19T04:28:13;1442.50;;;999.90;;
14734;SDS011;7458;49.002;8.472;2023-09-19T04:30:40;1429.63;;;999.90;;
14734;SDS011;7458;49.002;8.472;2023-09-19T04:33:06;1390.32;;;999.90;;
14734;SDS011;7458;49.002;8.472;2023-09-19T04:35:33;1393.25;;;999.90;;
14734;SDS011;7458;49.002;8.472;2023-09-19T04:37:59;1431.97;;;999.90;;
14734;SDS011;7458;49.002;8.472;2023-09-19T04:40:26;1433.22;;;999.90;;
14734;SDS011;7458;49.002;8.472;2023-09-19T04:42:55;1351.63;;;999.90;;
14734;SDS011;7458;49.002;8.472;2023-09-19T04:45:25;1451.63;;;999.90;;
14734;SDS011;7458;49.002;8.472;2023-09-19T04:47:51;1467.05;;;999.90;;
14734;SDS011;7458;49.002;8.472;2023-09-19T04:50:18;1449.32;;;999.90;;
14734;SDS011;7458;49.002;8.472;2023-09-19T04:52:46;1446.25;;;999.90;;
14734;SDS011;7458;49.002;8.472;2023-09-19T04:55:16;1392.68;;;999.90;;
14734;SDS011;7458;49.002;8.472;2023-09-19T04:57:44;1441.30;;;999.90;;
14734;SDS011;7458;49.002;8.472;2023-09-19T05:00:19;1370.95;;;999.90;;
14734;SDS011;7458;49.002;8.472;2023-09-19T05:02:49;1446.60;;;999.90;;
14734;SDS011;7458;49.002;8.472;2023-09-19T05:05:16;1433.00;;;999.90;;
14734;SDS011;7458;49.002;8.472;2023-09-19T05:07:44;1381.55;;;999.90;;
14734;SDS011;7458;49.002;8.472;2023-09-19T05:10:11;1420.78;;;999.90;;
14734;SDS011;7458;49.002;8.472;2023-09-19T05:12:37;1418.63;;;999.90;;
14734;SDS011;7458;49.002;8.472;2023-09-19T05:15:07;1426.25;;;999.90;;
14734;SDS011;7458;49.002;8.472;2023-09-19T05:17:34;1422.45;;;999.90;;
14734;SDS011;7458;49.002;8.472;2023-09-19T05:20:00;1464.30;;;999.90;;
14734;SDS011;7458;49.002;8.472;2023-09-19T05:22:41;1378.22;;;999.90;;
14734;SDS011;7458;49.002;8.472;2023-09-19T05:25:08;1414.63;;;999.90;;
14734;SDS011;7458;49.002;8.472;2023-09-19T05:27:35;1421.05;;;999.90;;
14734;SDS011;7458;49.002;8.472;2023-09-19T05:30:01;1352.93;;;999.90;;
14734;SDS011;7458;49.002;8.472;2023-09-19T05:32:28;1405.70;;;999.90;;
14734;SDS011;7458;49.002;8.472;2023-09-19T05:34:53;1346.35;;;999.90;;
14734;SDS011;7458;49.002;8.472;2023-09-19T05:37:21;1357.55;;;999.90;;
14734;SDS011;7458;49.002;8.472;2023-09-19T05:39:48;1421.25;;;999.90;;
14734;SDS011;7458;49.002;8.472;2023-09-19T05:42:14;1349.03;;;999.90;;
14734;SDS011;7458;49.002;8.472;2023-09-19T05:44:40;1439.07;;;999.90;;
14734;SDS011;7458;49.002;8.472;2023-09-19T05:47:06;1418.93;;;999.90;;
14734;SDS011;7458;49.002;8.472;2023-09-19T05:49:34;1424.57;;;999.90;;
14734;SDS011;7458;49.002;8.472;2023-09-19T05:52:03;1436.78;;;999.90;;
14734;SDS011;7458;49.002;8.472;2023-09-19T05:54:33;1404.22;;;999.90;;
14734;SDS011;7458;49.002;8.472;2023-09-19T05:56:59;1457.93;;;999.90;;
14734;SDS011;7458;49.002;8.472;2023-09-19T05:59:26;1459.13;;;999.90;;
14734;SDS011;7458;49.002;8.472;2023-09-19T06:01:53;1384.95;;;999.90;;
14734;SDS011;7458;49.002;8.472;2023-09-19T06:04:18;1456.20;;;999.90;;
14734;SDS011;7458;49.002;8.472;2023-09-19T06:06:45;1455.38;;;999.90;;
14734;SDS011;7458;49.002;8.472;2023-09-19T06:09:13;1416.63;;;999.90;;
14734;SDS011;7458;49.002;8.472;2023-09-19T06:11:43;1443.05;;;999.90;;
14734;SDS011;7458;49.002;8.472;2023-09-19T06:14:08;1393.05;;;999.90;;
14734;SDS011;7458;49.002;8.472;2023-09-19T06:16:35;1441.80;;;999.90;;
14734;SDS011;7458;49.002;8.472;2023-09-19T06:19:03;1439.38;;;999.90;;
14734;SDS011;7458;49.002;8.472;2023-09-19T06:21:31;1378.78;;;999.90;;
14734;SDS011;7458;49.002;8.472;2023-09-19T06:23:57;1420.32;;;999.90;;
14734;SDS011;7458;49.002;8.472;2023-09-19T06:26:24;1365.95;;;999.90;;
14734;SDS011;7458;49.002;8.472;2023-09-19T06:28:52;1385.20;;;999.90;;
14734;SDS011;7458;49.002;8.472;2023-09-19T06:31:17;1443.50;;;999.90;;
14734;SDS011;7458;49.002;8.472;2023-09-19T06:33:43;1377.90;;;999.90;;
14734;SDS011;7458;49.002;8.472;2023-09-19T06:36:09;1442.15;;;999.90;;
14734;SDS011;7458;49.002;8.472;2023-09-19T06:38:36;1404.13;;;999.90;;
14734;SDS011;7458;49.002;8.472;2023-09-19T06:41:04;1421.82;;;999.90;;
14734;SDS011;7458;49.002;8.472;2023-09-19T06:43:33;1446.55;;;999.90;;
14734;SDS011;7458;49.002;8.472;2023-09-19T06:46:00;1447.38;;;999.90;;
14734;SDS011;7458;49.002;8.472;2023-09-19T06:48:27;1433.30;;;999.90;;
14734;SDS011;7458;49.002;8.472;2023-09-19T06:50:54;1414.20;;;999.90;;
14734;SDS011;7458;49.002;8.472;2023-09-19T06:53:23;1344.78;;;999.90;;
14734;SDS011;7458;49.002;8.472;2023-09-19T06:55:50;1327.60;;;999.90;;
14734;SDS011;7458;49.002;8.472;2023-09-19T06:58:16;1366.07;;;999.90;;
14734;SDS011;7458;49.002;8.472;2023-09-19T07:00:42;1277.95;;;999.90;;
14734;SDS011;7458;49.002;8.472;2023-09-19T07:03:09;1280.28;;;999.90;;
14734;SDS011;7458;49.002;8.472;2023-09-19T07:05:36;1248.25;;;999.90;;
14734;SDS011;7458;49.002;8.472;2023-09-19T07:08:04;1376.38;;;999.90;;
14734;SDS011;7458;49.002;8.472;2023-09-19T07:10:37;1362.43;;;999.90;;
14734;SDS011;7458;49.002;8.472;2023-09-19T07:13:06;1341.45;;;999.90;;
14734;SDS011;7458;49.002;8.472;2023-09-19T07:15:38;1315.25;;;999.90;;
14734;SDS011;7458;49.002;8.472;2023-09-19T07:18:07;1322.57;;;999.90;;
14734;SDS011;7458;49.002;8.472;2023-09-19T07:20:36;1323.80;;;999.90;;
14734;SDS011;7458;49.002;8.472;2023-09-19T07:23:02;1305.82;;;999.90;;
14734;SDS011;7458;49.002;8.472;2023-09-19T07:25:28;1309.35;;;999.90;;
14734;SDS011;7458;49.002;8.472;2023-09-19T07:27:57;1376.00;;;999.90;;
14734;SDS011;7458;49.002;8.472;2023-09-19T07:30:27;1284.72;;;999.90;;
14734;SDS011;7458;49.002;8.472;2023-09-19T07:32:53;1276.03;;;999.90;;
14734;SDS011;7458;49.002;8.472;2023-09-19T07:35:19;1270.40;;;999.90;;
14734;SDS011;7458;49.002;8.472;2023-09-19T07:37:49;1337.10;;;999.90;;
14734;SDS011;7458;49.002;8.472;2023-09-19T07:40:16;1344.90;;;999.90;;
14734;SDS011;7458;49.002;8.472;2023-09-19T07:42:42;1353.80;;;999.90;;
14734;SDS011;7458;49.002;8.472;2023-09-19T07:45:09;1302.20;;;999.90;;
14734;SDS011;7458;49.002;8.472;2023-09-19T07:47:40;1320.47;;;999.90;;
14734;SDS011;7458;49.002;8.472;2023-09-19T07:50:10;1309.97;;;999.90;;
14734;SDS011;7458;49.002;8.472;2023-09-19T07:52:36;1319.05;;;999.90;;
14734;SDS011;7458;49.002;8.472;2023-09-19T07:55:04;1309.35;;;999.90;;
14734;SDS011;7458;49.002;8.472;2023-09-19T07:57:37;1387.43;;;999.90;;
14734;SDS011;7458;49.002;8.472;2023-09-19T08:00:03;1314.25;;;999.90;;
14734;SDS011;7458;49.002;8.472;2023-09-19T08:02:35;1310.70;;;999.90;;
14734;SDS011;7458;49.002;8.472;2023-09-19T08:05:10;1309.85;;;999.90;;
14734;SDS011;7458;49.002;8.472;2023-09-19T08:07:43;1302.47;;;999.90;;
14734;SDS011;7458;49.002;8.472;2023-09-19T08:10:13;1360.22;;;999.90;;
14734;SDS011;7458;49.002;8.472;2023-09-19T08:12:41;1360.90;;;999.90;;
14734;SDS011;7458;49.002;8.472;2023-09-19T08:15:15;1371.20;;;999.90;;
14734;SDS011;7458;49.002;8.472;2023-09-19T08:17:49;1298.40;;;999.90;;
14734;SDS011;7458;49.002;8.472;2023-09-19T08:20:15;1289.28;;;999.90;;
14734;SDS011;7458;49.002;8.472;2023-09-19T08:22:43;1280.78;;;999.90;;
14734;SDS011;7458;49.002;8.472;2023-09-19T08:25:13;1353.22;;;999.90;;
14734;SDS011;7458;49.002;8.472;2023-09-19T08:27:43;1279.80;;;999.90;;
14734;SDS011;7458;49.002;8.472;2023-09-19T08:30:15;1350.38;;;999.90;;
14734;SDS011;7458;49.002;8.472;2023-09-19T08:32:43;1275.03;;;999.90;;
14734;SDS011;7458;49.002;8.472;2023-09-19T08:35:09;1269.45;;;999.90;;
14734;SDS011;7458;49.002;8.472;2023-09-19T08:37:36;1335.13;;;999.90;;
14734;SDS011;7458;49.002;8.472;2023-09-19T08:40:01;1284.32;;;999.90;;
14734;SDS011;7458;49.002;8.472;2023-09-19T08:42:27;1388.57;;;999.90;;
14734;SDS011;7458;49.002;8.472;2023-09-19T08:44:54;1406.05;;;999.90;;
14734;SDS011;7458;49.002;8.472;2023-09-19T08:47:36;1329.75;;;999.90;;
14734;SDS011;7458;49.002;8.472;2023-09-19T08:50:19;1404.82;;;999.90;;
14734;SDS011;7458;49.002;8.472;2023-09-19T08:52:53;1430.40;;;999.90;;
14734;SDS011;7458;49.002;8.472;2023-09-19T08:55:28;1354.60;;;999.90;;
14734;SDS011;7458;49.002;8.472;2023-09-19T08:58:00;1414.35;;;999.90;;
14734;SDS011;7458;49.002;8.472;2023-09-19T09:02:59;1404.05;;;999.90;;
14734;SDS011;7458;49.002;8.472;2023-09-19T09:05:27;1405.45;;;999.90;;
14734;SDS011;7458;49.002;8.472;2023-09-19T09:07:55;1392.60;;;999.90;;
14734;SDS011;7458;49.002;8.472;2023-09-19T09:10:22;1380.30;;;999.90;;
14734;SDS011;7458;49.002;8.472;2023-09-19T09:12:52;1300.82;;;999.90;;
14734;SDS011;7458;49.002;8.472;2023-09-19T09:15:20;1295.88;;;999.90;;
14734;SDS011;7458;49.002;8.472;2023-09-19T09:17:49;1357.05;;;999.90;;
14734;SDS011;7458;49.002;8.472;2023-09-19T09:20:18;1345.85;;;999.90;;
14734;SDS011;7458;49.002;8.472;2023-09-19T09:22:54;1349.88;;;999.90;;
14734;SDS011;7458;49.002;8.472;2023-09-19T09:28:22;1357.45;;;999.90;;
14734;SDS011;7458;49.002;8.472;2023-09-19T09:30:51;1324.60;;;999.90;;
14734;SDS011;7458;49.002;8.472;2023-09-19T09:33:18;1401.05;;;999.90;;
14734;SDS011;7458;49.002;8.472;2023-09-19T09:35:57;1397.75;;;999.90;;
14734;SDS011;7458;49.002;8.472;2023-09-19T09:38:28;1393.10;;;999.90;;
14734;SDS011;7458;49.002;8.472;2023-09-19T09:41:09;1327.07;;;999.90;;
14734;SDS011;7458;49.002;8.472;2023-09-19T09:43:40;1381.57;;;999.90;;
14734;SDS011;7458;49.002;8.472;2023-09-19T09:46:36;1373.90;;;999.90;;
14734;SDS011;7458;49.002;8.472;2023-09-19T09:49:23;1302.95;;;999.90;;
14734;SDS011;7458;49.002;8.472;2023-09-19T09:52:03;1295.72;;;999.90;;
14734;SDS011;7458;49.002;8.472;2023-09-19T09:57:40;1378.47;;;999.90;;
14734;SDS011;7458;49.002;8.472;2023-09-19T10:00:11;1385.22;;;999.90;;
14734;SDS011;7458;49.002;8.472;2023-09-19T10:02:40;1380.60;;;999.90;;
14734;SDS011;7458;49.002;8.472;2023-09-19T10:05:17;1366.85;;;999.90;;
14734;SDS011;7458;49.002;8.472;2023-09-19T10:07:47;1375.82;;;999.90;;
14734;SDS011;7458;49.002;8.472;2023-09-19T10:13:08;1293.70;;;999.90;;
14734;SDS011;7458;49.002;8.472;2023-09-19T10:18:14;1362.93;;;999.90;;
14734;SDS011;7458;49.002;8.472;2023-09-19T10:20:43;1280.75;;;999.90;;
14734;SDS011;7458;49.002;8.472;2023-09-19T10:23:12;1358.80;;;999.90;;
14734;SDS011;7458;49.002;8.472;2023-09-19T10:25:42;1342.63;;;999.90;;
14734;SDS011;7458;49.002;8.472;2023-09-19T10:28:12;1349.75;;;999.90;;
14734;SDS011;7458;49.002;8.472;2023-09-19T10:30:50;1333.03;;;999.90;;
14734;SDS011;7458;49.002;8.472;2023-09-19T10:33:18;1233.03;;;999.90;;
14734;SDS011;7458;49.002;8.472;2023-09-19T10:35:51;1323.78;;;999.90;;
14734;SDS011;7458;49.002;8.472;2023-09-19T10:38:22;1313.15;;;999.90;;
14734;SDS011;7458;49.002;8.472;2023-09-19T10:40:52;1335.82;;;999.90;;
14734;SDS011;7458;49.002;8.472;2023-09-19T10:43:21;1283.43;;;999.90;;
14734;SDS011;7458;49.002;8.472;2023-09-19T10:45:58;1280.72;;;999.90;;
14734;SDS011;7458;49.002;8.472;2023-09-19T10:48:30;1291.90;;;999.90;;
14734;SDS011;7458;49.002;8.472;2023-09-19T10:50:58;1374.80;;;999.90;;
14734;SDS011;7458;49.002;8.472;2023-09-19T10:53:48;1384.95;;;999.90;;
14734;SDS011;7458;49.002;8.472;2023-09-19T10:56:52;1393.03;;;999.90;;
14734;SDS011;7458;49.002;8.472;2023-09-19T10:59:19;1399.68;;;999.90;;
14734;SDS011;7458;49.002;8.472;2023-09-19T11:01:53;1383.80;;;999.90;;
14734;SDS011;7458;49.002;8.472;2023-09-19T11:07:02;1300.80;;;999.90;;
14734;SDS011;7458;49.002;8.472;2023-09-19T11:09:50;1301.30;;;999.90;;
14734;SDS011;7458;49.002;8.472;2023-09-19T11:15:02;1370.22;;;999.90;;
14734;SDS011;7458;49.002;8.472;2023-09-19T11:17:37;1371.45;;;999.90;;
14734;SDS011;7458;49.002;8.472;2023-09-19T11:30:32;1270.57;;;999.90;;
14734;SDS011;7458;49.002;8.472;2023-09-19T11:35:58;1323.30;;;999.90;;
14734;SDS011;7458;49.002;8.472;2023-09-19T11:43:48;1255.50;;;999.90;;
14734;SDS011;7458;49.002;8.472;2023-09-19T11:46:19;1285.95;;;999.90;;
14734;SDS011;7458;49.002;8.472;2023-09-19T11:48:49;1281.63;;;999.90;;
14734;SDS011;7458;49.002;8.472;2023-09-19T11:51:25;1370.05;;;999.90;;
14734;SDS011;7458;49.002;8.472;2023-09-19T11:53:58;1410.93;;;999.90;;
14734;SDS011;7458;49.002;8.472;2023-09-19T11:56:28;1341.28;;;999.90;;
14734;SDS011;7458;49.002;8.472;2023-09-19T11:58:56;1395.25;;;999.90;;
14734;SDS011;7458;49.002;8.472;2023-09-19T12:01:32;1330.70;;;999.90;;
14734;SDS011;7458;49.002;8.472;2023-09-19T12:04:00;1388.75;;;999.90;;
14734;SDS011;7458;49.002;8.472;2023-09-19T12:06:29;1305.35;;;999.90;;
14734;SDS011;7458;49.002;8.472;2023-09-19T12:08:57;1295.32;;;999.90;;
14734;SDS011;7458;49.002;8.472;2023-09-19T12:11:28;1362.13;;;999.90;;
14734;SDS011;7458;49.002;8.472;2023-09-19T12:14:01;1366.10;;;999.90;;
14734;SDS011;7458;49.002;8.472;2023-09-19T12:16:28;1286.82;;;999.90;;
14734;SDS011;7458;49.002;8.472;2023-09-19T12:18:55;1292.65;;;999.90;;
14734;SDS011;7458;49.002;8.472;2023-09-19T12:24:05;1344.93;;;999.90;;
14734;SDS011;7458;49.002;8.472;2023-09-19T12:26:45;1358.43;;;999.90;;
14734;SDS011;7458;49.002;8.472;2023-09-19T12:29:18;1367.18;;;999.90;;
14734;SDS011;7458;49.002;8.472;2023-09-19T12:31:55;1288.32;;;999.90;;
14734;SDS011;7458;49.002;8.472;2023-09-19T12:34:27;1360.30;;;999.90;;
14734;SDS011;7458;49.002;8.472;2023-09-19T12:37:12;1361.65;;;999.90;;
14734;SDS011;7458;49.002;8.472;2023-09-19T12:40:03;1347.50;;;999.90;;
14734;SDS011;7458;49.002;8.472;2023-09-19T12:42:47;1292.10;;;999.90;;
14734;SDS011;7458;49.002;8.472;2023-09-19T12:45:15;1394.32;;;999.90;;
14734;SDS011;7458;49.002;8.472;2023-09-19T12:51:01;1294.30;;;999.90;;
14734;SDS011;7458;49.002;8.472;2023-09-19T12:53:33;1288.10;;;999.90;;
14734;SDS011;7458;49.002;8.472;2023-09-19T12:56:05;1365.63;;;999.90;;
14734;SDS011;7458;49.002;8.472;2023-09-19T12:58:33;1289.18;;;999.90;;
14734;SDS011;7458;49.002;8.472;2023-09-19T13:01:16;1354.75;;;999.90;;
14734;SDS011;7458;49.002;8.472;2023-09-19T13:03:42;1347.05;;;999.90;;
14734;SDS011;7458;49.002;8.472;2023-09-19T13:06:08;1281.97;;;999.90;;
14734;SDS011;7458;49.002;8.472;2023-09-19T13:08:35;1348.25;;;999.90;;
14734;SDS011;7458;49.002;8.472;2023-09-19T13:11:13;1282.15;;;999.90;;
14734;SDS011;7458;49.002;8.472;2023-09-19T13:19:46;1279.30;;;999.90;;
14734;SDS011;7458;49.002;8.472;2023-09-19T13:25:05;1335.32;;;999.90;;
14734;SDS011;7458;49.002;8.472;2023-09-19T13:27:45;1286.35;;;999.90;;
14734;SDS011;7458;49.002;8.472;2023-09-19T13:30:19;1301.00;;;999.90;;
14734;SDS011;7458;49.002;8.472;2023-09-19T13:32:47;1359.72;;;999.90;;
14734;SDS011;7458;49.002;8.472;2023-09-19T13:35:14;1293.07;;;999.90;;
14734;SDS011;7458;49.002;8.472;2023-09-19T13:37:41;1371.10;;;999.90;;
14734;SDS011;7458;49.002;8.472;2023-09-19T13:42:36;1356.50;;;999.90;;
14734;SDS011;7458;49.002;8.472;2023-09-19T13:45:02;1355.05;;;999.90;;
14734;SDS011;7458;49.002;8.472;2023-09-19T13:47:29;1357.05;;;999.90;;
14734;SDS011;7458;49.002;8.472;2023-09-19T13:49:56;1343.55;;;999.90;;
14734;SDS011;7458;49.002;8.472;2023-09-19T13:52:22;1263.80;;;999.90;;
14734;SDS011;7458;49.002;8.472;2023-09-19T13:54:48;1384.70;;;999.90;;
14734;SDS011;7458;49.002;8.472;2023-09-19T13:57:18;1343.03;;;999.90;;
14734;SDS011;7458;49.002;8.472;2023-09-19T13:59:44;1348.68;;;999.90;;
14734;SDS011;7458;49.002;8.472;2023-09-19T14:02:10;1350.47;;;999.90;;
14734;SDS011;7458;49.002;8.472;2023-09-19T14:04:35;1354.70;;;999.90;;
14734;SDS011;7458;49.002;8.472;2023-09-19T14:07:01;1350.22;;;999.90;;
14734;SDS011;7458;49.002;8.472;2023-09-19T14:09:28;1296.53;;;999.90;;
14734;SDS011;7458;49.002;8.472;2023-09-19T14:11:54;1344.68;;;999.90;;
14734;SDS011;7458;49.002;8.472;2023-09-19T14:14:21;1271.47;;;999.90;;
14734;SDS011;7458;49.002;8.472;2023-09-19T14:16:47;1273.20;;;999.90;;
14734;SDS011;7458;49.002;8.472;2023-09-19T14:19:13;1272.63;;;999.90;;
14734;SDS011;7458;49.002;8.472;2023-09-19T14:21:41;1347.85;;;999.90;;
14734;SDS011;7458;49.002;8.472;2023-09-19T14:24:07;1289.40;;;999.90;;
14734;SDS011;7458;49.002;8.472;2023-09-19T14:26:37;1283.30;;;999.90;;
14734;SDS011;7458;49.002;8.472;2023-09-19T14:29:04;1279.70;;;999.90;;
14734;SDS011;7458;49.002;8.472;2023-09-19T14:31:33;1270.00;;;999.90;;
14734;SDS011;7458;49.002;8.472;2023-09-19T14:33:59;1342.03;;;999.90;;
14734;SDS011;7458;49.002;8.472;2023-09-19T14:36:25;1332.70;;;999.90;;
14734;SDS011;7458;49.002;8.472;2023-09-19T14:38:55;1333.72;;;999.90;;
14734;SDS011;7458;49.002;8.472;2023-09-19T14:41:22;1337.72;;;999.90;;
14734;SDS011;7458;49.002;8.472;2023-09-19T14:43:50;1329.15;;;999.90;;
14734;SDS011;7458;49.002;8.472;2023-09-19T14:46:17;1331.57;;;999.90;;
14734;SDS011;7458;49.002;8.472;2023-09-19T14:48:44;1263.05;;;999.90;;
14734;SDS011;7458;49.002;8.472;2023-09-19T14:51:13;1273.55;;;999.90;;
14734;SDS011;7458;49.002;8.472;2023-09-19T14:53:39;1260.32;;;999.90;;
14734;SDS011;7458;49.002;8.472;2023-09-19T14:56:09;1259.07;;;999.90;;
14734;SDS011;7458;49.002;8.472;2023-09-19T14:58:36;1380.88;;;999.90;;
14734;SDS011;7458;49.002;8.472;2023-09-19T15:01:07;1376.47;;;999.90;;
14734;SDS011;7458;49.002;8.472;2023-09-19T15:03:35;1314.03;;;999.90;;
14734;SDS011;7458;49.002;8.472;2023-09-19T15:06:05;1379.45;;;999.90;;
14734;SDS011;7458;49.002;8.472;2023-09-19T15:08:45;1375.95;;;999.90;;
14734;SDS011;7458;49.002;8.472;2023-09-19T15:11:16;1323.03;;;999.90;;
14734;SDS011;7458;49.002;8.472;2023-09-19T15:13:43;1379.28;;;999.90;;
14734;SDS011;7458;49.002;8.472;2023-09-19T15:16:10;1374.35;;;999.90;;
14734;SDS011;7458;49.002;8.472;2023-09-19T15:18:38;1310.53;;;999.90;;
14734;SDS011;7458;49.002;8.472;2023-09-19T15:21:12;1310.90;;;999.90;;
14734;SDS011;7458;49.002;8.472;2023-09-19T15:23:40;1302.75;;;999.90;;
14734;SDS011;7458;49.002;8.472;2023-09-19T15:26:08;1373.13;;;999.90;;
14734;SDS011;7458;49.002;8.472;2023-09-19T15:28:38;1304.47;;;999.90;;
14734;SDS011;7458;49.002;8.472;2023-09-19T15:31:06;1297.35;;;999.90;;
14734;SDS011;7458;49.002;8.472;2023-09-19T15:33:37;1296.93;;;999.90;;
14734;SDS011;7458;49.002;8.472;2023-09-19T15:36:07;1358.13;;;999.90;;
14734;SDS011;7458;49.002;8.472;2023-09-19T15:44:00;1279.68;;;999.90;;
14734;SDS011;7458;49.002;8.472;2023-09-19T15:46:29;1276.65;;;999.90;;